sensor_id;sensor_type;location;lat;lon;timestamp;pressure;altitude;pressure_sealevel;temperature;humidity
13934;BME280;7039;52.168;9.866;2023-05-25T00:02:12;101503.16;;;10.39;85.32
13934;BME280;7039;52.168;9.866;2023-05-25T00:04:39;101506.56;;;10.41;85.55
13934;BME280;7039;52.168;9.866;2023-05-25T00:07:06;101505.06;;;10.34;85.32
13934;BME280;7039;52.168;9.866;2023-05-25T00:09:33;101510.69;;;10.48;84.86
13934;BME280;7039;52.168;9.866;2023-05-25T00:12:00;101512.63;;;10.41;84.76
13934;BME280;7039;52.168;9.866;2023-05-25T00:14:26;101515.41;;;10.37;84.85
13934;BME280;7039;52.168;9.866;2023-05-25T00:16:55;101516.41;;;10.33;84.80
13934;BME280;7039;52.168;9.866;2023-05-25T00:19:22;101509.31;;;10.38;84.50
13934;BME280;7039;52.168;9.866;2023-05-25T00:21:50;101511.41;;;10.25;84.87
13934;BME280;7039;52.168;9.866;2023-05-25T00:24:16;101507.84;;;10.29;84.92
13934;BME280;7039;52.168;9.866;2023-05-25T00:26:42;101509.34;;;10.36;84.51
13934;BME280;7039;52.168;9.866;2023-05-25T00:29:09;101506.72;;;10.36;84.23
13934;BME280;7039;52.168;9.866;2023-05-25T00:31:36;101500.97;;;10.25;84.29
13934;BME280;7039;52.168;9.866;2023-05-25T00:34:03;101498.84;;;10.10;84.46
13934;BME280;7039;52.168;9.866;2023-05-25T00:36:31;101495.44;;;10.08;85.09
13934;BME280;7039;52.168;9.866;2023-05-25T00:38:57;101495.72;;;9.98;85.07
13934;BME280;7039;52.168;9.866;2023-05-25T00:41:25;101500.94;;;9.98;85.19
13934;BME280;7039;52.168;9.866;2023-05-25T00:43:52;101504.16;;;10.07;84.74
13934;BME280;7039;52.168;9.866;2023-05-25T00:46:19;101503.41;;;10.03;84.70
13934;BME280;7039;52.168;9.866;2023-05-25T00:48:47;101494.03;;;9.97;84.36
13934;BME280;7039;52.168;9.866;2023-05-25T00:51:14;101497.00;;;9.85;84.42
13934;BME280;7039;52.168;9.866;2023-05-25T00:53:42;101495.97;;;9.91;85.13
13934;BME280;7039;52.168;9.866;2023-05-25T00:56:13;101506.31;;;9.92;84.63
13934;BME280;7039;52.168;9.866;2023-05-25T00:58:41;101498.50;;;9.92;84.99
13934;BME280;7039;52.168;9.866;2023-05-25T01:01:09;101505.88;;;9.79;84.84
13934;BME280;7039;52.168;9.866;2023-05-25T01:03:37;101499.72;;;9.82;85.07
13934;BME280;7039;52.168;9.866;2023-05-25T01:06:10;101501.50;;;9.80;85.20
13934;BME280;7039;52.168;9.866;2023-05-25T01:08:38;101503.78;;;9.91;84.22
13934;BME280;7039;52.168;9.866;2023-05-25T01:11:10;101501.75;;;9.72;84.73
13934;BME280;7039;52.168;9.866;2023-05-25T01:13:37;101500.31;;;9.62;85.22
13934;BME280;7039;52.168;9.866;2023-05-25T01:16:04;101496.94;;;9.58;85.20
13934;BME280;7039;52.168;9.866;2023-05-25T01:18:31;101492.59;;;9.59;84.83
13934;BME280;7039;52.168;9.866;2023-05-25T01:21:04;101491.63;;;9.61;84.98
13934;BME280;7039;52.168;9.866;2023-05-25T01:23:41;101500.47;;;9.56;85.08
13934;BME280;7039;52.168;9.866;2023-05-25T01:26:13;101503.84;;;9.59;85.36
13934;BME280;7039;52.168;9.866;2023-05-25T01:28:43;101505.66;;;9.57;84.84
13934;BME280;7039;52.168;9.866;2023-05-25T01:31:12;101501.91;;;9.66;84.52
13934;BME280;7039;52.168;9.866;2023-05-25T01:33:41;101510.25;;;9.49;84.81
13934;BME280;7039;52.168;9.866;2023-05-25T01:36:10;101505.88;;;9.50;85.27
13934;BME280;7039;52.168;9.866;2023-05-25T01:38:36;101503.53;;;9.40;85.25
13934;BME280;7039;52.168;9.866;2023-05-25T01:41:03;101494.63;;;9.49;84.81
13934;BME280;7039;52.168;9.866;2023-05-25T01:43:30;101497.47;;;9.40;85.17
13934;BME280;7039;52.168;9.866;2023-05-25T01:46:08;101500.97;;;9.39;84.88
13934;BME280;7039;52.168;9.866;2023-05-25T01:48:42;101496.00;;;9.31;85.00
13934;BME280;7039;52.168;9.866;2023-05-25T01:51:18;101500.31;;;9.31;85.10
13934;BME280;7039;52.168;9.866;2023-05-25T01:53:50;101506.41;;;9.31;85.16
13934;BME280;7039;52.168;9.866;2023-05-25T01:56:18;101500.31;;;9.31;85.12
13934;BME280;7039;52.168;9.866;2023-05-25T01:58:47;101502.19;;;9.27;85.05
13934;BME280;7039;52.168;9.866;2023-05-25T02:01:16;101504.84;;;9.24;84.90
13934;BME280;7039;52.168;9.866;2023-05-25T02:03:45;101499.78;;;9.19;84.92
13934;BME280;7039;52.168;9.866;2023-05-25T02:06:14;101500.66;;;9.20;85.02
13934;BME280;7039;52.168;9.866;2023-05-25T02:08:42;101500.84;;;9.12;84.85
13934;BME280;7039;52.168;9.866;2023-05-25T02:11:11;101505.84;;;9.20;85.05
13934;BME280;7039;52.168;9.866;2023-05-25T02:13:38;101504.25;;;9.14;84.99
13934;BME280;7039;52.168;9.866;2023-05-25T02:16:05;101505.72;;;9.25;84.52
13934;BME280;7039;52.168;9.866;2023-05-25T02:18:32;101503.19;;;9.22;84.33
13934;BME280;7039;52.168;9.866;2023-05-25T02:20:58;101500.84;;;9.12;85.28
13934;BME280;7039;52.168;9.866;2023-05-25T02:23:25;101508.53;;;9.17;85.07
13934;BME280;7039;52.168;9.866;2023-05-25T02:25:53;101504.09;;;9.20;84.69
13934;BME280;7039;52.168;9.866;2023-05-25T02:28:20;101511.19;;;9.15;84.35
13934;BME280;7039;52.168;9.866;2023-05-25T02:30:46;101495.63;;;9.12;84.40
13934;BME280;7039;52.168;9.866;2023-05-25T02:33:13;101502.50;;;9.15;83.79
13934;BME280;7039;52.168;9.866;2023-05-25T02:35:39;101489.94;;;8.99;84.49
13934;BME280;7039;52.168;9.866;2023-05-25T02:38:06;101495.75;;;9.08;84.50
13934;BME280;7039;52.168;9.866;2023-05-25T02:40:32;101500.13;;;9.07;84.35
13934;BME280;7039;52.168;9.866;2023-05-25T02:43:00;101491.53;;;9.04;84.67
13934;BME280;7039;52.168;9.866;2023-05-25T02:45:26;101500.25;;;9.03;84.79
13934;BME280;7039;52.168;9.866;2023-05-25T02:47:53;101507.22;;;9.02;84.06
13934;BME280;7039;52.168;9.866;2023-05-25T02:50:20;101509.25;;;8.91;84.59
13934;BME280;7039;52.168;9.866;2023-05-25T02:52:46;101501.63;;;8.83;85.11
13934;BME280;7039;52.168;9.866;2023-05-25T02:55:13;101505.09;;;8.84;85.10
13934;BME280;7039;52.168;9.866;2023-05-25T02:57:39;101505.69;;;8.93;84.62
13934;BME280;7039;52.168;9.866;2023-05-25T03:00:08;101511.88;;;8.89;84.67
13934;BME280;7039;52.168;9.866;2023-05-25T03:02:36;101508.78;;;9.08;84.17
13934;BME280;7039;52.168;9.866;2023-05-25T03:05:03;101508.22;;;8.96;83.69
13934;BME280;7039;52.168;9.866;2023-05-25T03:07:30;101501.28;;;8.97;83.94
13934;BME280;7039;52.168;9.866;2023-05-25T03:09:57;101504.84;;;8.93;83.96
13934;BME280;7039;52.168;9.866;2023-05-25T03:12:23;101517.50;;;9.07;84.07
13934;BME280;7039;52.168;9.866;2023-05-25T03:14:50;101518.94;;;9.17;83.93
13934;BME280;7039;52.168;9.866;2023-05-25T03:17:18;101521.50;;;9.18;84.43
13934;BME280;7039;52.168;9.866;2023-05-25T03:19:44;101526.56;;;9.25;83.81
13934;BME280;7039;52.168;9.866;2023-05-25T03:22:11;101532.69;;;9.22;83.99
13934;BME280;7039;52.168;9.866;2023-05-25T03:24:37;101526.22;;;9.35;84.39
13934;BME280;7039;52.168;9.866;2023-05-25T03:27:05;101529.47;;;9.44;84.77
13934;BME280;7039;52.168;9.866;2023-05-25T03:29:32;101534.56;;;9.48;84.82
13934;BME280;7039;52.168;9.866;2023-05-25T03:31:58;101533.31;;;9.61;84.70
13934;BME280;7039;52.168;9.866;2023-05-25T03:34:27;101542.25;;;9.82;84.25
13934;BME280;7039;52.168;9.866;2023-05-25T03:36:54;101545.56;;;9.88;83.86
13934;BME280;7039;52.168;9.866;2023-05-25T03:39:20;101550.25;;;10.06;83.59
13934;BME280;7039;52.168;9.866;2023-05-25T03:41:47;101550.66;;;10.20;83.27
13934;BME280;7039;52.168;9.866;2023-05-25T03:44:13;101549.88;;;10.17;83.04
13934;BME280;7039;52.168;9.866;2023-05-25T03:46:40;101548.81;;;9.96;83.59
13934;BME280;7039;52.168;9.866;2023-05-25T03:49:06;101545.38;;;9.94;83.90
13934;BME280;7039;52.168;9.866;2023-05-25T03:51:39;101549.00;;;10.18;83.73
13934;BME280;7039;52.168;9.866;2023-05-25T03:54:05;101564.22;;;10.33;83.46
13934;BME280;7039;52.168;9.866;2023-05-25T03:56:32;101551.63;;;10.46;83.08
13934;BME280;7039;52.168;9.866;2023-05-25T03:58:58;101559.97;;;10.56;82.90
13934;BME280;7039;52.168;9.866;2023-05-25T04:01:25;101552.66;;;10.67;82.55
13934;BME280;7039;52.168;9.866;2023-05-25T04:03:54;101549.06;;;10.71;82.16
13934;BME280;7039;52.168;9.866;2023-05-25T04:06:21;101552.47;;;10.73;82.19
13934;BME280;7039;52.168;9.866;2023-05-25T04:08:50;101542.38;;;10.89;82.10
13934;BME280;7039;52.168;9.866;2023-05-25T04:11:17;101555.53;;;10.86;81.84
13934;BME280;7039;52.168;9.866;2023-05-25T04:13:43;101551.19;;;10.85;82.17
13934;BME280;7039;52.168;9.866;2023-05-25T04:16:10;101552.44;;;11.00;81.97
13934;BME280;7039;52.168;9.866;2023-05-25T04:18:37;101557.47;;;11.06;82.20
13934;BME280;7039;52.168;9.866;2023-05-25T04:21:04;101566.03;;;11.10;82.37
13934;BME280;7039;52.168;9.866;2023-05-25T04:23:30;101571.53;;;11.27;82.01
13934;BME280;7039;52.168;9.866;2023-05-25T04:25:59;101579.84;;;11.38;81.92
13934;BME280;7039;52.168;9.866;2023-05-25T04:28:26;101575.03;;;11.26;82.02
13934;BME280;7039;52.168;9.866;2023-05-25T04:30:53;101570.97;;;11.42;81.94
13934;BME280;7039;52.168;9.866;2023-05-25T04:33:21;101576.50;;;11.33;82.30
13934;BME280;7039;52.168;9.866;2023-05-25T04:35:47;101575.56;;;11.36;82.32
13934;BME280;7039;52.168;9.866;2023-05-25T04:38:15;101577.38;;;11.34;82.84
13934;BME280;7039;52.168;9.866;2023-05-25T04:40:42;101577.16;;;11.15;83.95
13934;BME280;7039;52.168;9.866;2023-05-25T04:43:11;101579.44;;;11.24;83.95
13934;BME280;7039;52.168;9.866;2023-05-25T04:45:42;101585.94;;;11.37;83.53
13934;BME280;7039;52.168;9.866;2023-05-25T04:48:09;101588.63;;;11.36;83.73
13934;BME280;7039;52.168;9.866;2023-05-25T04:50:37;101592.19;;;11.58;83.21
13934;BME280;7039;52.168;9.866;2023-05-25T04:53:04;101586.03;;;11.59;82.62
13934;BME280;7039;52.168;9.866;2023-05-25T04:55:31;101589.63;;;11.57;82.91
13934;BME280;7039;52.168;9.866;2023-05-25T04:57:57;101588.81;;;11.78;82.67
13934;BME280;7039;52.168;9.866;2023-05-25T05:00:26;101588.16;;;11.97;82.84
13934;BME280;7039;52.168;9.866;2023-05-25T05:02:53;101591.34;;;12.05;82.10
13934;BME280;7039;52.168;9.866;2023-05-25T05:05:20;101590.84;;;12.17;81.55
13934;BME280;7039;52.168;9.866;2023-05-25T05:07:47;101594.78;;;12.29;81.23
13934;BME280;7039;52.168;9.866;2023-05-25T05:10:13;101596.00;;;12.42;81.00
13934;BME280;7039;52.168;9.866;2023-05-25T05:12:39;101587.69;;;12.09;81.01
13934;BME280;7039;52.168;9.866;2023-05-25T05:15:06;101594.97;;;12.24;80.72
13934;BME280;7039;52.168;9.866;2023-05-25T05:17:37;101602.25;;;12.38;80.81
13934;BME280;7039;52.168;9.866;2023-05-25T05:20:04;101607.19;;;12.46;80.41
13934;BME280;7039;52.168;9.866;2023-05-25T05:22:32;101604.69;;;12.43;80.34
13934;BME280;7039;52.168;9.866;2023-05-25T05:24:59;101611.19;;;12.32;80.61
13934;BME280;7039;52.168;9.866;2023-05-25T05:27:26;101615.41;;;12.37;80.70
13934;BME280;7039;52.168;9.866;2023-05-25T05:29:52;101620.22;;;12.47;81.37
13934;BME280;7039;52.168;9.866;2023-05-25T05:32:19;101615.78;;;12.49;80.76
13934;BME280;7039;52.168;9.866;2023-05-25T05:34:46;101618.63;;;12.65;81.03
13934;BME280;7039;52.168;9.866;2023-05-25T05:37:13;101614.44;;;12.61;80.83
13934;BME280;7039;52.168;9.866;2023-05-25T05:39:39;101616.84;;;12.44;81.26
13934;BME280;7039;52.168;9.866;2023-05-25T05:42:06;101623.72;;;12.46;80.72
13934;BME280;7039;52.168;9.866;2023-05-25T05:44:33;101620.63;;;12.59;80.56
13934;BME280;7039;52.168;9.866;2023-05-25T05:47:00;101619.09;;;12.75;80.78
13934;BME280;7039;52.168;9.866;2023-05-25T05:49:26;101628.56;;;13.00;80.44
13934;BME280;7039;52.168;9.866;2023-05-25T05:51:55;101628.81;;;12.93;79.79
13934;BME280;7039;52.168;9.866;2023-05-25T05:54:21;101628.88;;;12.92;79.60
13934;BME280;7039;52.168;9.866;2023-05-25T05:56:48;101630.84;;;12.65;80.08
13934;BME280;7039;52.168;9.866;2023-05-25T05:59:14;101632.19;;;12.53;79.71
13934;BME280;7039;52.168;9.866;2023-05-25T06:01:41;101632.09;;;12.56;79.57
13934;BME280;7039;52.168;9.866;2023-05-25T06:04:07;101632.72;;;12.39;79.32
13934;BME280;7039;52.168;9.866;2023-05-25T06:06:34;101639.75;;;12.39;80.13
13934;BME280;7039;52.168;9.866;2023-05-25T06:09:03;101637.47;;;11.82;80.78
13934;BME280;7039;52.168;9.866;2023-05-25T06:11:31;101647.13;;;11.80;80.79
13934;BME280;7039;52.168;9.866;2023-05-25T06:13:57;101654.69;;;12.13;79.22
13934;BME280;7039;52.168;9.866;2023-05-25T06:16:24;101652.50;;;12.46;78.36
13934;BME280;7039;52.168;9.866;2023-05-25T06:18:51;101644.25;;;12.11;78.81
13934;BME280;7039;52.168;9.866;2023-05-25T06:21:17;101656.22;;;11.95;80.73
13934;BME280;7039;52.168;9.866;2023-05-25T06:23:44;101654.56;;;11.93;81.11
13934;BME280;7039;52.168;9.866;2023-05-25T06:26:13;101662.41;;;12.16;80.84
13934;BME280;7039;52.168;9.866;2023-05-25T06:28:39;101670.63;;;12.05;80.94
13934;BME280;7039;52.168;9.866;2023-05-25T06:31:06;101679.44;;;12.03;81.03
13934;BME280;7039;52.168;9.866;2023-05-25T06:33:32;101676.22;;;12.20;80.77
13934;BME280;7039;52.168;9.866;2023-05-25T06:35:59;101678.56;;;11.79;81.79
13934;BME280;7039;52.168;9.866;2023-05-25T06:38:27;101669.75;;;11.31;82.50
13934;BME280;7039;52.168;9.866;2023-05-25T06:40:54;101680.28;;;11.28;83.90
13934;BME280;7039;52.168;9.866;2023-05-25T06:43:22;101682.56;;;11.39;84.01
13934;BME280;7039;52.168;9.866;2023-05-25T06:45:48;101686.34;;;11.55;82.97
13934;BME280;7039;52.168;9.866;2023-05-25T06:48:14;101687.09;;;11.59;82.97
13934;BME280;7039;52.168;9.866;2023-05-25T06:50:41;101699.84;;;11.93;82.04
13934;BME280;7039;52.168;9.866;2023-05-25T06:53:07;101689.22;;;11.73;82.59
13934;BME280;7039;52.168;9.866;2023-05-25T06:55:35;101693.19;;;12.08;81.47
13934;BME280;7039;52.168;9.866;2023-05-25T06:58:02;101687.41;;;12.00;81.70
13934;BME280;7039;52.168;9.866;2023-05-25T07:00:30;101689.00;;;12.27;80.61
13934;BME280;7039;52.168;9.866;2023-05-25T07:02:57;101689.16;;;12.46;80.33
13934;BME280;7039;52.168;9.866;2023-05-25T07:05:23;101694.09;;;12.54;80.11
13934;BME280;7039;52.168;9.866;2023-05-25T07:07:51;101691.00;;;12.66;79.17
13934;BME280;7039;52.168;9.866;2023-05-25T07:10:18;101684.97;;;12.42;78.73
13934;BME280;7039;52.168;9.866;2023-05-25T07:12:45;101697.78;;;12.48;79.45
13934;BME280;7039;52.168;9.866;2023-05-25T07:15:13;101703.59;;;13.01;78.58
13934;BME280;7039;52.168;9.866;2023-05-25T07:17:42;101691.66;;;12.49;78.03
13934;BME280;7039;52.168;9.866;2023-05-25T07:20:10;101692.94;;;12.16;80.10
13934;BME280;7039;52.168;9.866;2023-05-25T07:22:37;101697.94;;;12.22;80.14
13934;BME280;7039;52.168;9.866;2023-05-25T07:25:05;101701.00;;;11.84;82.02
13934;BME280;7039;52.168;9.866;2023-05-25T07:27:32;101712.41;;;12.30;81.10
13934;BME280;7039;52.168;9.866;2023-05-25T07:30:00;101697.88;;;12.47;79.54
13934;BME280;7039;52.168;9.866;2023-05-25T07:32:27;101701.81;;;12.57;78.35
13934;BME280;7039;52.168;9.866;2023-05-25T07:34:55;101701.94;;;12.76;78.14
13934;BME280;7039;52.168;9.866;2023-05-25T07:37:21;101696.09;;;12.24;78.99
13934;BME280;7039;52.168;9.866;2023-05-25T07:39:48;101701.19;;;12.74;78.05
13934;BME280;7039;52.168;9.866;2023-05-25T07:42:15;101702.13;;;12.93;77.00
13934;BME280;7039;52.168;9.866;2023-05-25T07:44:45;101700.06;;;12.58;78.47
13934;BME280;7039;52.168;9.866;2023-05-25T07:47:11;101698.66;;;12.71;77.21
13934;BME280;7039;52.168;9.866;2023-05-25T07:49:38;101696.22;;;12.66;76.52
13934;BME280;7039;52.168;9.866;2023-05-25T07:52:07;101706.34;;;12.75;76.26
13934;BME280;7039;52.168;9.866;2023-05-25T07:54:34;101706.59;;;12.91;76.24
13934;BME280;7039;52.168;9.866;2023-05-25T07:57:04;101708.03;;;12.99;76.49
13934;BME280;7039;52.168;9.866;2023-05-25T07:59:31;101708.16;;;12.95;75.62
13934;BME280;7039;52.168;9.866;2023-05-25T08:01:57;101713.22;;;12.78;76.24
13934;BME280;7039;52.168;9.866;2023-05-25T08:04:24;101711.97;;;12.65;76.92
13934;BME280;7039;52.168;9.866;2023-05-25T08:06:51;101708.22;;;12.50;77.24
13934;BME280;7039;52.168;9.866;2023-05-25T08:09:20;101710.19;;;12.89;77.13
13934;BME280;7039;52.168;9.866;2023-05-25T08:11:47;101706.59;;;13.35;74.92
13934;BME280;7039;52.168;9.866;2023-05-25T08:14:15;101712.28;;;13.45;73.87
13934;BME280;7039;52.168;9.866;2023-05-25T08:16:42;101718.16;;;13.30;74.29
13934;BME280;7039;52.168;9.866;2023-05-25T08:19:08;101713.31;;;13.41;73.90
13934;BME280;7039;52.168;9.866;2023-05-25T08:21:34;101716.38;;;13.30;73.11
13934;BME280;7039;52.168;9.866;2023-05-25T08:24:01;101719.44;;;13.20;74.42
13934;BME280;7039;52.168;9.866;2023-05-25T08:26:30;101720.59;;;13.55;73.51
13934;BME280;7039;52.168;9.866;2023-05-25T08:28:59;101717.72;;;13.82;72.39
13934;BME280;7039;52.168;9.866;2023-05-25T08:31:26;101714.69;;;13.70;71.86
13934;BME280;7039;52.168;9.866;2023-05-25T08:33:52;101716.88;;;13.61;71.58
13934;BME280;7039;52.168;9.866;2023-05-25T08:36:19;101723.31;;;14.13;70.64
13934;BME280;7039;52.168;9.866;2023-05-25T08:38:45;101713.50;;;14.17;71.75
13934;BME280;7039;52.168;9.866;2023-05-25T08:41:12;101715.69;;;14.47;71.93
13934;BME280;7039;52.168;9.866;2023-05-25T08:43:40;101716.69;;;14.99;70.47
13934;BME280;7039;52.168;9.866;2023-05-25T08:46:08;101715.06;;;14.97;70.30
13934;BME280;7039;52.168;9.866;2023-05-25T08:48:36;101716.72;;;14.43;71.11
13934;BME280;7039;52.168;9.866;2023-05-25T08:51:05;101725.34;;;14.65;72.02
13934;BME280;7039;52.168;9.866;2023-05-25T08:53:34;101730.59;;;14.65;70.56
13934;BME280;7039;52.168;9.866;2023-05-25T08:56:01;101724.63;;;14.61;69.82
13934;BME280;7039;52.168;9.866;2023-05-25T08:58:32;101714.16;;;14.41;69.29
13934;BME280;7039;52.168;9.866;2023-05-25T09:01:03;101710.50;;;14.64;69.53
13934;BME280;7039;52.168;9.866;2023-05-25T09:03:32;101713.97;;;15.01;68.86
13934;BME280;7039;52.168;9.866;2023-05-25T09:06:00;101717.25;;;15.06;69.18
13934;BME280;7039;52.168;9.866;2023-05-25T09:08:27;101715.75;;;14.64;70.38
13934;BME280;7039;52.168;9.866;2023-05-25T09:10:54;101707.25;;;14.95;69.20
13934;BME280;7039;52.168;9.866;2023-05-25T09:13:21;101712.19;;;14.84;69.64
13934;BME280;7039;52.168;9.866;2023-05-25T09:15:48;101718.09;;;15.07;70.58
13934;BME280;7039;52.168;9.866;2023-05-25T09:18:16;101716.53;;;15.74;67.76
13934;BME280;7039;52.168;9.866;2023-05-25T09:20:42;101722.06;;;16.18;66.26
13934;BME280;7039;52.168;9.866;2023-05-25T09:23:09;101718.06;;;15.60;66.81
13934;BME280;7039;52.168;9.866;2023-05-25T09:25:36;101720.78;;;15.76;66.65
13934;BME280;7039;52.168;9.866;2023-05-25T09:28:06;101727.94;;;15.90;67.27
13934;BME280;7039;52.168;9.866;2023-05-25T09:30:33;101721.06;;;15.35;67.62
13934;BME280;7039;52.168;9.866;2023-05-25T09:33:09;101726.50;;;14.39;70.00
13934;BME280;7039;52.168;9.866;2023-05-25T09:35:38;101731.84;;;14.94;69.49
13934;BME280;7039;52.168;9.866;2023-05-25T09:38:05;101726.91;;;15.23;67.97
13934;BME280;7039;52.168;9.866;2023-05-25T09:40:32;101733.75;;;15.79;67.58
13934;BME280;7039;52.168;9.866;2023-05-25T09:42:59;101734.00;;;15.40;68.59
13934;BME280;7039;52.168;9.866;2023-05-25T09:45:25;101738.53;;;15.36;70.20
13934;BME280;7039;52.168;9.866;2023-05-25T09:47:53;101731.44;;;15.56;69.00
13934;BME280;7039;52.168;9.866;2023-05-25T09:50:20;101734.75;;;15.42;69.75
13934;BME280;7039;52.168;9.866;2023-05-25T09:52:48;101737.47;;;15.40;68.56
13934;BME280;7039;52.168;9.866;2023-05-25T09:55:15;101742.06;;;15.72;68.99
13934;BME280;7039;52.168;9.866;2023-05-25T09:57:41;101740.63;;;15.30;68.36
13934;BME280;7039;52.168;9.866;2023-05-25T10:00:09;101747.44;;;15.51;68.14
13934;BME280;7039;52.168;9.866;2023-05-25T10:02:36;101761.22;;;15.91;67.26
13934;BME280;7039;52.168;9.866;2023-05-25T10:05:03;101744.78;;;15.16;69.82
13934;BME280;7039;52.168;9.866;2023-05-25T10:07:30;101749.28;;;15.49;69.50
13934;BME280;7039;52.168;9.866;2023-05-25T10:10:02;101749.44;;;15.46;68.88
13934;BME280;7039;52.168;9.866;2023-05-25T10:12:32;101753.94;;;14.90;70.16
13934;BME280;7039;52.168;9.866;2023-05-25T10:15:01;101757.88;;;15.53;70.20
13934;BME280;7039;52.168;9.866;2023-05-25T10:17:30;101750.38;;;15.62;68.52
13934;BME280;7039;52.168;9.866;2023-05-25T10:19:59;101752.53;;;15.89;68.88
13934;BME280;7039;52.168;9.866;2023-05-25T10:22:31;101757.09;;;16.52;66.77
13934;BME280;7039;52.168;9.866;2023-05-25T10:25:07;101746.84;;;16.95;64.46
13934;BME280;7039;52.168;9.866;2023-05-25T10:27:38;101753.13;;;16.61;65.78
13934;BME280;7039;52.168;9.866;2023-05-25T10:30:07;101756.84;;;16.41;66.67
13934;BME280;7039;52.168;9.866;2023-05-25T10:32:35;101753.88;;;16.63;66.25
13934;BME280;7039;52.168;9.866;2023-05-25T10:35:04;101749.38;;;17.13;63.53
13934;BME280;7039;52.168;9.866;2023-05-25T10:37:32;101752.09;;;17.11;63.41
13934;BME280;7039;52.168;9.866;2023-05-25T10:40:00;101752.78;;;17.15;64.13
13934;BME280;7039;52.168;9.866;2023-05-25T10:42:27;101745.09;;;17.26;62.34
13934;BME280;7039;52.168;9.866;2023-05-25T10:44:54;101742.75;;;17.05;63.80
13934;BME280;7039;52.168;9.866;2023-05-25T10:47:21;101744.78;;;16.53;64.18
13934;BME280;7039;52.168;9.866;2023-05-25T10:49:53;101745.06;;;16.80;65.53
13934;BME280;7039;52.168;9.866;2023-05-25T10:52:20;101748.94;;;16.41;66.29
13934;BME280;7039;52.168;9.866;2023-05-25T10:54:47;101746.78;;;15.98;67.40
13934;BME280;7039;52.168;9.866;2023-05-25T10:57:19;101739.13;;;16.11;67.81
13934;BME280;7039;52.168;9.866;2023-05-25T10:59:49;101736.38;;;16.78;66.10
13934;BME280;7039;52.168;9.866;2023-05-25T11:02:19;101742.97;;;16.53;65.55
13934;BME280;7039;52.168;9.866;2023-05-25T11:04:47;101741.75;;;16.60;64.58
13934;BME280;7039;52.168;9.866;2023-05-25T11:07:15;101736.78;;;17.18;64.41
13934;BME280;7039;52.168;9.866;2023-05-25T11:09:55;101736.13;;;17.44;62.44
13934;BME280;7039;52.168;9.866;2023-05-25T11:12:23;101735.81;;;16.88;64.10
13934;BME280;7039;52.168;9.866;2023-05-25T11:15:13;101742.81;;;17.20;62.47
13934;BME280;7039;52.168;9.866;2023-05-25T11:17:56;101745.66;;;17.61;62.52
13934;BME280;7039;52.168;9.866;2023-05-25T11:20:26;101739.88;;;17.40;60.65
13934;BME280;7039;52.168;9.866;2023-05-25T11:22:53;101737.63;;;17.18;62.20
13934;BME280;7039;52.168;9.866;2023-05-25T11:25:36;101727.72;;;16.91;63.00
13934;BME280;7039;52.168;9.866;2023-05-25T11:28:05;101733.47;;;17.14;63.95
13934;BME280;7039;52.168;9.866;2023-05-25T11:30:33;101730.03;;;16.82;65.53
13934;BME280;7039;52.168;9.866;2023-05-25T11:33:01;101728.72;;;17.05;65.12
13934;BME280;7039;52.168;9.866;2023-05-25T11:35:27;101732.00;;;16.94;64.36
13934;BME280;7039;52.168;9.866;2023-05-25T11:37:57;101735.88;;;17.78;63.95
13934;BME280;7039;52.168;9.866;2023-05-25T11:40:28;101736.91;;;17.75;61.94
13934;BME280;7039;52.168;9.866;2023-05-25T11:42:55;101733.94;;;18.10;60.57
13934;BME280;7039;52.168;9.866;2023-05-25T11:45:23;101723.88;;;17.58;61.72
13934;BME280;7039;52.168;9.866;2023-05-25T11:47:50;101723.22;;;17.54;61.92
13934;BME280;7039;52.168;9.866;2023-05-25T11:50:17;101729.66;;;17.34;62.56
13934;BME280;7039;52.168;9.866;2023-05-25T11:52:43;101725.78;;;16.79;63.99
13934;BME280;7039;52.168;9.866;2023-05-25T11:55:10;101733.22;;;16.71;64.05
13934;BME280;7039;52.168;9.866;2023-05-25T11:57:37;101722.59;;;16.25;64.22
13934;BME280;7039;52.168;9.866;2023-05-25T12:00:06;101725.22;;;16.25;65.31
13934;BME280;7039;52.168;9.866;2023-05-25T12:02:38;101727.59;;;17.09;65.29
13934;BME280;7039;52.168;9.866;2023-05-25T12:05:17;101722.78;;;17.31;63.10
13934;BME280;7039;52.168;9.866;2023-05-25T12:07:44;101734.69;;;17.08;65.53
13934;BME280;7039;52.168;9.866;2023-05-25T12:10:16;101727.91;;;16.88;64.71
13934;BME280;7039;52.168;9.866;2023-05-25T12:12:44;101725.72;;;16.81;64.77
13934;BME280;7039;52.168;9.866;2023-05-25T12:15:13;101726.00;;;17.37;63.54
13934;BME280;7039;52.168;9.866;2023-05-25T12:17:42;101716.38;;;17.80;62.73
13934;BME280;7039;52.168;9.866;2023-05-25T12:20:10;101721.91;;;17.47;63.15
13934;BME280;7039;52.168;9.866;2023-05-25T12:22:40;101712.81;;;17.37;63.20
13934;BME280;7039;52.168;9.866;2023-05-25T12:26:05;101712.47;;;17.87;61.21
13934;BME280;7039;52.168;9.866;2023-05-25T12:28:38;101711.16;;;17.50;61.35
13934;BME280;7039;52.168;9.866;2023-05-25T12:31:24;101705.25;;;17.75;60.74
13934;BME280;7039;52.168;9.866;2023-05-25T12:34:08;101702.59;;;17.61;60.62
13934;BME280;7039;52.168;9.866;2023-05-25T12:36:39;101710.16;;;18.39;58.81
13934;BME280;7039;52.168;9.866;2023-05-25T12:39:31;101707.94;;;19.01;55.89
13934;BME280;7039;52.168;9.866;2023-05-25T12:42:27;101699.72;;;18.78;55.41
13934;BME280;7039;52.168;9.866;2023-05-25T12:44:56;101700.88;;;18.60;57.69
13934;BME280;7039;52.168;9.866;2023-05-25T12:47:25;101712.69;;;18.54;57.65
13934;BME280;7039;52.168;9.866;2023-05-25T12:50:11;101695.44;;;18.34;58.23
13934;BME280;7039;52.168;9.866;2023-05-25T12:52:39;101701.19;;;18.41;57.24
13934;BME280;7039;52.168;9.866;2023-05-25T12:55:21;101699.41;;;18.42;58.17
13934;BME280;7039;52.168;9.866;2023-05-25T12:58:25;101706.66;;;18.52;57.58
13934;BME280;7039;52.168;9.866;2023-05-25T13:00:51;101700.34;;;18.82;58.84
13934;BME280;7039;52.168;9.866;2023-05-25T13:03:18;101700.50;;;18.93;57.00
13934;BME280;7039;52.168;9.866;2023-05-25T13:05:46;101704.19;;;19.18;57.55
13934;BME280;7039;52.168;9.866;2023-05-25T13:08:13;101702.19;;;18.53;57.41
13934;BME280;7039;52.168;9.866;2023-05-25T13:10:39;101704.56;;;19.52;56.92